Tiempo atmosférico en la estación meteorológica de Nerja, Málaga (169 m.)



Fecha
DESCASC
Temp. máxima en grados centígrados (hora)
DESCASC
Temp. mínima en grados centígrados (hora)
DESCASC
Temp. media en grados centígrados
DESCASC
Racha de viento máxima en m/sg (hora)
DESCASC
Velocidad máxima media en intervalos de 10 minutos(hora)
DESCASC
Precipitaciones diarias en mm
DESCASC
Precipitaciones de 00:00 a 06:00 en mm
DESCASC
Precipitaciones de 06:00 a 12:00 en mm
DESCASC
Precipitaciones de 12:00 a 18:00 en mm
DESCASC
Precipitaciones de 18:00 a 24:00 en mm
DESCASC
11-12-2019 23.4 (13:30) 11.7 (04:00) 17.5 11.94 (13:20) 5.83 (13:20) 0 0 0 0 0
10-12-2019 20 (16:00) 12.6 (06:20) 16.3 4.17 (08:20) 3.33 (05:10) 0 0 0 0 0
09-12-2019 21 (16:10) 14.5 (19:50) 17.8 10 (01:20) 6.39 (01:20) 0 0 0 0 0
08-12-2019 17.9 (23:20) 10.7 (00:00) 14.3 4.72 (21:20) 3.06 (21:20) 0 0 0 0 0
07-12-2019 18.4 (12:40) 12 (00:00) 15.2 6.39 (15:40) 3.89 (15:20) 0 0 0 0 0
06-12-2019 19.8 (15:10) 12.2 (00:00) 16 5 (17:00) 3.06 (06:40) 0 0 0 0 0
05-12-2019 17.8 (15:10) 11.1 (00:00) 14.4 9.17 (10:50) 3.61 (16:00) 0 0 0 0 0
04-12-2019 19.5 (15:10) 11 (00:00) 15.3 9.72 (13:20) 5 (13:50) 0 0 0 0 0
03-12-2019 17.1 (16:00) 11.5 (00:00) 14.3 6.94 (10:00) 3.89 (07:50) 1.8 0.6 1.2 0 0
02-12-2019 16.5 (13:20) 10.7 (00:00) 13.6 10.28 (16:50) 4.44 (16:50) 19.8 14.8 4.8 0 0.2
01-12-2019 18.4 (11:30) 12.2 (00:00) 15.3 9.72 (12:10) 4.72 (12:10) 1.6 0 0 0 1.6
30-11-2019 19.8 (14:40) 12.9 (00:00) 16.3 3.33 (15:20) 1.94 (00:10) 0 0 0 0 0
29-11-2019 19.1 (15:40) 11.8 (00:00) 15.5 3.89 (02:40) 2.78 (02:40) 0 0 0 0 0
28-11-2019 20.2 (15:10) 13.5 (00:00) 16.9 4.72 (05:40) 3.33 (21:50) 0 0 0 0 0
27-11-2019 22.7 (15:30) 14.4 (00:00) 18.6 11.11 (16:40) 5 (16:40) 0 0 0 0 0
26-11-2019 21.8 (14:00) 14.4 (00:00) 18.1 4.44 (03:40) 3.06 (03:10) 0 0 0 0 0
25-11-2019 20.7 (12:50) 12.3 (00:00) 16.5 7.22 (18:10) 3.61 (18:00) 0 0 0 0 0
24-11-2019 19.5 (15:50) 11.3 (00:00) 15.4 12.78 (13:20) 6.11 (09:40) 0 0 0 0 0
23-11-2019 18.9 (14:10) 13.2 (00:00) 16 19.72 (02:30) 7.22 (03:50) 0 0 0 0 0
22-11-2019 17.3 (23:40) 13.6 (00:00) 15.4 15.28 (23:00) 6.94 (22:50) 76.8 11.4 33.4 27.2 4.8
21-11-2019 14.1 (16:40) 11.5 (00:00) 12.8 5.83 (23:40) 2.5 (23:40) 20.4 0 3 8.4 9
20-11-2019 15.6 (11:10) 10.7 (00:00) 13.2 6.94 (15:40) 3.61 (15:40) 1 0 0 0.8 0.2
19-11-2019 17.3 (12:40) 11.3 (00:00) 14.3 4.72 (01:50) 3.33 (01:50) 0 0 0 0 0
18-11-2019 19.3 (13:30) 12.1 (00:00) 15.7 11.39 (09:40) 6.67 (09:40) 0.4 0.4 0 0 0
17-11-2019 18.3 (13:50) 9.2 (00:00) 13.7 11.67 (14:30) 5 (13:30) 0 0 0 0 0
16-11-2019 17.9 (15:10) 8.7 (00:00) 13.3 10 (18:20) 6.39 (18:10) 0 0 0 0 0
15-11-2019 15.7 (13:40) 8.8 (00:00) 12.3 11.39 (15:50) 5.28 (09:20) 0 0 0 0 0

Gráficas

Temp. máximas Temp. mínimas Temp. medias Precipitaciones Rachas de viento máximas Velocidades máximas media en intervalos de 10 minutos

Datos horarios

Fecha y hora oficial Temperatura (ºC) Velocidad del viento (km/h) Dirección del viento Racha (km/h) Dirección de racha Precipitación (mm) Presión (hPa) Tendencia (hPa) Humedad (%)
2019-12-14 23:00:00 14.2 4 Nordeste 11 Norte 0 -- -- 63
2019-12-14 22:00:00 14.3 7 Nordeste 13 Norte 0 -- -- 62
2019-12-14 21:00:00 14.3 10 Norte 14 Norte 0 -- -- 64
2019-12-14 20:00:00 15 8 Norte 12 Norte 0 -- -- 60
2019-12-14 19:00:00 15.8 4 Norte 12 Nordeste 0 -- -- 59
2019-12-14 18:00:00 17.4 0 Calma 8 Este 0 -- -- 64
2019-12-14 17:00:00 20.8 3 Este 8 Este 0 -- -- 51
2019-12-14 16:00:00 20.7 3 Sudeste 8 Sudeste 0 -- -- 53
2019-12-14 15:00:00 20.7 5 Sur 10 Sur 0 -- -- 48
2019-12-14 14:00:00 20.9 4 Sur 10 Sur 0 -- -- 45
2019-12-14 13:00:00 19.7 6 Sur 12 Sur 0 -- -- 46
2019-12-14 12:00:00 19.5 5 Sudeste 11 Sudoeste 0 -- -- 48
2019-12-14 11:00:00 18.7 5 Sudeste 12 Sudeste 0 -- -- 52
2019-12-14 10:00:00 16.6 2 Este 13 Norte 0 -- -- 55
2019-12-14 09:00:00 14.4 7 Norte 12 Norte 0 -- -- 54
2019-12-14 08:00:00 14.3 7 Nordeste 14 Norte 0 -- -- 51
2019-12-14 07:00:00 14.1 2 Oeste 16 Norte 0 -- -- 54
2019-12-14 06:00:00 14.5 9 Norte 15 Norte 0 -- -- 50
2019-12-14 05:00:00 14.6 3 Nordeste 18 Norte 0 -- -- 54
2019-12-14 04:00:00 14 2 Nordeste 17 Norte 0 -- -- 60
2019-12-14 03:00:00 14 4 Norte 14 Norte 0 -- -- 59
2019-12-14 02:00:00 14.2 0 Calma 13 Norte 0 -- -- 60
2019-12-14 01:00:00 14.5 6 Nordeste 15 Nordeste 0 -- -- 59
2019-12-14 00:00:00 15.4 9 Nordeste 13 Norte 0 -- -- 57
2019-12-13 23:00:00 16.1 7 Oeste 13 Norte 0 -- -- 54
2019-12-13 22:00:00 15.9 7 Norte 14 Este 0 -- -- 58
2019-12-13 21:00:00 17.1 8 Nordeste 19 Este 0 -- -- 54
2019-12-13 20:00:00 17.4 6 Norte 28 Noroeste 0 -- -- 54
2019-12-13 19:00:00 18.1 18 Noroeste 42 Noroeste 0 -- -- 51
2019-12-13 18:00:00 18.5 17 Noroeste 49 Noroeste 0 -- -- 48
2019-12-13 17:00:00 19.7 19 Noroeste 48 Noroeste 0 -- -- 48
2019-12-13 16:00:00 20 18 Oeste 41 Oeste 0 -- -- 46
2019-12-13 15:00:00 20.4 13 Oeste 36 Oeste 0 -- -- 46
2019-12-13 14:00:00 19.4 11 Oeste 27 Oeste 0 -- -- 51
2019-12-13 13:00:00 19.7 11 Oeste 30 Oeste 0 -- -- 52
2019-12-13 12:00:00 18.5 14 Oeste 32 Sudoeste 0 -- -- 57
2019-12-13 11:00:00 17.6 8 Oeste 21 Oeste 0 -- -- 63
2019-12-13 10:00:00 15.4 13 Noroeste 22 Oeste 0 -- -- 70
2019-12-13 09:00:00 15 7 Oeste 24 Oeste 0 -- -- 76
2019-12-13 08:00:00 15.1 6 Oeste 21 Sudoeste 0 -- -- 76
2019-12-13 07:00:00 15.5 10 Sudoeste 26 Sudoeste 0 -- -- 75
2019-12-13 06:00:00 14.8 11 Oeste 26 Oeste 0 -- -- 79
2019-12-13 05:00:00 14.6 10 Oeste 23 Oeste 0 -- -- 80
2019-12-13 04:00:00 15.1 9 Oeste 26 Oeste 0 -- -- 75
2019-12-13 03:00:00 15.3 14 Oeste 34 Oeste 0 -- -- 72
2019-12-13 02:00:00 14.9 10 Sudoeste 31 Oeste 0 -- -- 72
2019-12-13 01:00:00 15.1 12 Oeste 34 Oeste 0 -- -- 67
2019-12-13 00:00:00 15.1 14 Oeste 41 Oeste 0 -- -- 65
2019-12-12 23:00:00 14.6 10 Sudoeste 31 Oeste 0 -- -- 63
2019-12-12 22:00:00 14.3 10 Oeste 24 Oeste 0 -- -- 63
2019-12-12 21:00:00 14.2 10 Sudoeste 24 Sudoeste 0 -- -- 62
2019-12-12 20:00:00 15.1 12 Oeste 40 Noroeste 0 -- -- 55
2019-12-12 19:00:00 14.3 8 Sudoeste 28 Oeste 0 -- -- 58
2019-12-12 18:00:00 14.8 13 Oeste 35 Sudoeste 0 -- -- 53
2019-12-12 17:00:00 15.7 12 Oeste 30 Oeste 0 -- -- 44
2019-12-12 16:00:00 17.4 9 Noroeste 42 Norte 0 -- -- 42
2019-12-12 15:00:00 16.9 22 Norte 47 Norte 0 -- -- 41
2019-12-12 14:00:00 17.7 11 Noroeste 32 Noroeste 0 -- -- 37
2019-12-12 13:00:00 17.6 6 Sudeste 22 Sudeste 0 -- -- 46
2019-12-12 12:00:00 16.8 4 Sur 13 Este 0 -- -- 51
2019-12-12 11:00:00 14.9 4 Sur 13 Sudeste 0 -- -- 62
2019-12-12 10:00:00 13.7 4 Nordeste 10 Norte 0 -- -- 65
2019-12-12 09:00:00 11.8 2 Nordeste 7 Norte 0 -- -- 67
2019-12-12 08:00:00 11.9 7 Norte 11 Norte 0 -- -- 53
2019-12-12 07:00:00 12.5 2 Noroeste 8 Norte 0 -- -- 44
2019-12-12 06:00:00 13.1 4 Nordeste 14 Norte 0 -- -- 35
2019-12-12 05:00:00 13.3 7 Noroeste 13 Noroeste 0 -- -- 34
2019-12-12 04:00:00 12.7 9 Norte 15 Norte 0 -- -- 47
2019-12-12 03:00:00 12.7 8 Norte 18 Norte 0 -- -- 45
2019-12-12 02:00:00 13 12 Norte 17 Norte 0 -- -- 50
2019-12-12 01:00:00 13.4 10 Norte 15 Norte 0 -- -- 49
2019-12-12 00:00:00 14.1 10 Norte 19 Norte 0 -- -- 48
2019-12-11 23:00:00 13.8 10 Norte 15 Norte 0 -- -- 53
2019-12-11 22:00:00 14.3 6 Noroeste 14 Norte 0 -- -- 48
2019-12-11 21:00:00 14.9 3 Nordeste 23 Noroeste 0 -- -- 51
2019-12-11 20:00:00 16.4 17 Noroeste 34 Noroeste 0 -- -- 46
2019-12-11 19:00:00 17.1 9 Noroeste 28 Noroeste 0 -- -- 50
2019-12-11 18:00:00 18.4 13 Noroeste 32 Noroeste 0 -- -- 48
2019-12-11 17:00:00 19.3 13 Noroeste 36 Oeste 0 -- -- 38
2019-12-11 16:00:00 21.5 9 Noroeste 30 Noroeste 0 -- -- 33
2019-12-11 15:00:00 22.2 15 Noroeste 35 Oeste 0 -- -- 24
2019-12-11 14:00:00 23.3 14 Noroeste 43 Oeste 0 -- -- 21
2019-12-11 13:00:00 21.8 5 Nordeste 20 Nordeste 0 -- -- 35
2019-12-11 12:00:00 20.8 4 Sudeste 12 Sudeste 0 -- -- 35
2019-12-11 11:00:00 18.8 4 Nordeste 12 Este 0 -- -- 38
2019-12-11 10:00:00 16.4 3 Este 8 Este 0 -- -- 47
2019-12-11 09:00:00 13.6 0 Calma 13 Norte 0 -- -- 50
2019-12-11 08:00:00 13.3 2 Este 11 Norte 0 -- -- 50
2019-12-11 07:00:00 12.6 6 Norte 14 Noroeste 0 -- -- 59
2019-12-11 06:00:00 12.9 4 Noroeste 13 Norte 0 -- -- 56
2019-12-11 05:00:00 12.8 3 Nordeste 11 Norte 0 -- -- 55
2019-12-11 04:00:00 11.7 6 Nordeste 10 Nordeste 0 -- -- 61
2019-12-11 03:00:00 12.5 4 Norte 11 Norte 0 -- -- 57
2019-12-11 02:00:00 13 2 Norte 9 Norte 0 -- -- 58
2019-12-11 01:00:00 13.1 2 Noroeste 8 Norte 0 -- -- 56
2019-12-11 00:00:00 12.9 3 Norte 8 Norte 0 -- -- 62
2019-12-10 23:00:00 12.8 0 Calma 7 Norte 0 -- -- 67
2019-12-10 22:00:00 13.4 2 Nordeste 10 Norte 0 -- -- 64
2019-12-10 21:00:00 13.4 4 Norte 12 Norte 0 -- -- 69
2019-12-10 20:00:00 14.1 7 Norte 11 Norte 0 -- -- 71
2019-12-10 19:00:00 14.2 4 Noroeste 9 Norte 0 -- -- 71
2019-12-10 18:00:00 16.1 2 Sudeste 9 Sudoeste 0 -- -- 77
2019-12-10 17:00:00 17.9 5 Sudoeste 9 Sudoeste 0 -- -- 68
2019-12-10 16:00:00 20 5 Sur 10 Sur 0 -- -- 61
2019-12-10 15:00:00 19.3 5 Sur 10 Sur 0 -- -- 53
2019-12-10 14:00:00 18.7 6 Sur 12 Sudeste 0 -- -- 60
2019-12-10 13:00:00 18.7 5 Sur 11 Sudoeste 0 -- -- 58
2019-12-10 12:00:00 18.3 5 Sudoeste 9 Sur 0 -- -- 58
2019-12-10 11:00:00 18 2 Sur 8 Sur 0 -- -- 52
2019-12-10 10:00:00 16.2 0 Calma 12 Norte 0 -- -- 51
2019-12-10 09:00:00 13.6 8 Norte 15 Norte 0 -- -- 61
2019-12-10 08:00:00 12.6 4 Noroeste 11 Norte 0 -- -- 62
2019-12-10 07:00:00 13.3 0 Calma 6 Norte 0 -- -- 62
2019-12-10 06:00:00 13.3 4 Este 14 Norte 0 -- -- 62
2019-12-10 05:00:00 14.2 10 Norte 13 Norte 0 -- -- 57
2019-12-10 04:00:00 14.3 3 Norte 7 Norte 0 -- -- 64
2019-12-10 03:00:00 15.4 0 Calma 15 Noroeste 0 -- -- 61
2019-12-10 02:00:00 15.4 5 Noroeste 11 Noroeste 0 -- -- 60
2019-12-10 01:00:00 16.3 4 Norte 14 Norte 0 -- -- 58
2019-12-10 00:00:00 16.1 8 Norte 13 Norte 0 -- -- 60
2019-12-09 23:00:00 16.5 7 Norte 10 Norte 0 -- -- 59
2019-12-09 22:00:00 16 9 Norte 11 Norte 0 -- -- 62
2019-12-09 21:00:00 15.2 6 Norte 10 Norte 0 -- -- 67
2019-12-09 20:00:00 14.5 6 Norte 9 Norte 0 -- -- 77
2019-12-09 19:00:00 15.2 0 Calma 8 Norte 0 -- -- 77
2019-12-09 18:00:00 17.3 4 Norte 9 Norte 0 -- -- 67
2019-12-09 17:00:00 19.7 4 Sudoeste 10 Sur 0 -- -- 62
2019-12-09 16:00:00 20.9 2 Sur 9 Sudeste 0 -- -- 57
2019-12-09 15:00:00 20.8 6 Sudoeste 11 Sur 0 -- -- 60
2019-12-09 14:00:00 20 5 Sur 11 Sur 0 -- -- 62
2019-12-09 13:00:00 20.1 6 Sudoeste 12 Sudoeste 0 -- -- 64
2019-12-09 12:00:00 19.4 3 Sudoeste 9 Sudeste 0 -- -- 58
2019-12-09 11:00:00 18.8 5 Sudeste 12 Este 0 -- -- 64
2019-12-09 10:00:00 17.6 4 Este 10 Norte 0 -- -- 67
2019-12-09 09:00:00 14.8 5 Nordeste 13 Norte 0 -- -- 73
2019-12-09 08:00:00 15 3 Nordeste 15 Nordeste 0 -- -- 70
2019-12-09 07:00:00 15.5 10 Nordeste 16 Norte 0 -- -- 67
2019-12-09 06:00:00 15.8 4 Este 13 Norte 0 -- -- 65
2019-12-09 05:00:00 16.9 7 Nordeste 22 Oeste 0 -- -- 59
2019-12-09 04:00:00 17.4 5 Nordeste 25 Noroeste 0 -- -- 58
2019-12-09 03:00:00 16.9 8 Norte 30 Noroeste 0 -- -- 59
2019-12-09 02:00:00 18.3 14 Norte 36 Noroeste 0 -- -- 53
2019-12-09 01:00:00 18.4 14 Norte 23 Norte 0 -- -- 55
2019-12-09 00:00:00 16.5 5 Este 14 Este 0 -- -- 61
2019-12-08 23:00:00 16.7 5 Norte 9 Nordeste 0 -- -- 53
2019-12-08 22:00:00 16.1 8 Nordeste 17 Norte 0 -- -- 61
2019-12-08 21:00:00 16 4 Norte 13 Noroeste 0 -- -- 58
2019-12-08 20:00:00 14 3 Noroeste 8 Noroeste 0 -- -- 79
2019-12-08 19:00:00 14.2 3 Oeste 9 Norte 0 -- -- 87
2019-12-08 18:00:00 15.4 0 Calma 6 Sudoeste 0 -- -- 83
2019-12-08 17:00:00 17.2 4 Sur 11 Sur 0 -- -- 76
2019-12-08 16:00:00 17.4 4 Sudoeste 12 Sudoeste 0 -- -- 70
2019-12-08 15:00:00 17.3 5 Sur 14 Sur 0 -- -- 74
2019-12-08 14:00:00 17.1 6 Sudoeste 14 Sur 0 -- -- 68
2019-12-08 13:00:00 16.6 7 Sudoeste 12 Sudoeste 0 -- -- 75
2019-12-08 12:00:00 16.1 6 Sudoeste 10 Sudoeste 0 -- -- 73
2019-12-08 11:00:00 15 3 Sudoeste 8 Sur 0 -- -- 80
2019-12-08 10:00:00 13.4 0 Calma 5 Oeste 0 -- -- 86
2019-12-08 09:00:00 11.3 0 Calma 12 Norte 0 -- -- 85
2019-12-08 08:00:00 10.7 9 Norte 12 Norte 0 -- -- 88
2019-12-08 07:00:00 11.1 5 Norte 12 Norte 0 -- -- 87
2019-12-08 06:00:00 11.2 9 Norte 12 Norte 0 -- -- 86
2019-12-08 05:00:00 11.2 7 Norte 12 Norte 0 -- -- 87
2019-12-08 04:00:00 11.7 5 Norte 12 Norte 0 -- -- 90
2019-12-08 03:00:00 11.7 5 Norte 12 Norte 0 -- -- 90
2019-12-08 02:00:00 11.8 9 Norte 12 Norte 0 -- -- 90
2019-12-08 01:00:00 12 8 Norte 11 Norte 0 -- -- 87
2019-12-08 00:00:00 12 7 Norte 11 Norte 0 -- -- 87
2019-12-07 23:00:00 12.4 8 Norte 11 Norte 0 -- -- 87
2019-12-07 22:00:00 13 3 Noroeste 9 Oeste 0 -- -- 85
2019-12-07 21:00:00 13.9 3 Noroeste 7 Noroeste 0 -- -- 78
2019-12-07 20:00:00 14.7 4 Noroeste 6 Noroeste 0 -- -- 77
2019-12-07 19:00:00 14.8 2 Sudoeste 9 Sudoeste 0 -- -- 79
2019-12-07 18:00:00 15.2 4 Sudoeste 12 Sudoeste 0 -- -- 82
2019-12-07 17:00:00 15.7 6 Sudoeste 19 Sudoeste 0 -- -- 82
2019-12-07 16:00:00 16.7 12 Sudoeste 23 Sudoeste 0 -- -- 77
2019-12-07 15:00:00 17.6 12 Sudoeste 23 Sudoeste 0 -- -- 75
2019-12-07 14:00:00 18 9 Sudoeste 17 Sudoeste 0 -- -- 70
2019-12-07 13:00:00 18.2 5 Sur 12 Sudoeste 0 -- -- 68
2019-12-07 12:00:00 18 5 Sudeste 12 Sur 0 -- -- 69
2019-12-07 11:00:00 17.5 3 Sur 9 Sudeste 0 -- -- 68
2019-12-07 10:00:00 15.8 0 Calma 10 Norte 0 -- -- 64
2019-12-07 09:00:00 13.6 5 Noroeste 15 Norte 0 -- -- 65
2019-12-07 08:00:00 14.5 12 Norte 17 Norte 0 -- -- 61
2019-12-07 07:00:00 14.6 4 Nordeste 10 Norte 0 -- -- 63
2019-12-07 06:00:00 15.1 7 Norte 12 Norte 0 -- -- 61
2019-12-07 05:00:00 15 8 Norte 11 Norte 0 -- -- 63
2019-12-07 04:00:00 14.9 7 Norte 11 Norte 0 -- -- 67
2019-12-07 03:00:00 13.9 5 Norte 10 Oeste 0 -- -- 80
2019-12-07 02:00:00 13.8 2 Norte 6 Norte 0 -- -- 86
2019-12-07 01:00:00 14 0 Calma 6 Este 0 -- -- 87
2019-12-07 00:00:00 14.2 4 Nordeste 7 Este 0 -- -- 86
2019-12-06 23:00:00 14.3 3 Este 8 Norte 0 -- -- 81
2019-12-06 22:00:00 15 3 Noroeste 14 Noroeste 0 -- -- 78
2019-12-06 21:00:00 14.9 5 Norte 11 Noroeste 0 -- -- 82
2019-12-06 20:00:00 13.9 6 Norte 9 Norte 0 -- -- 86
2019-12-06 19:00:00 14.6 0 Calma 6 Oeste 0 -- -- 83
2019-12-06 18:00:00 16.3 3 Sudeste 18 Sudeste 0 -- -- 76
2019-12-06 17:00:00 17.6 7 Sudeste 18 Sudeste 0 -- -- 73
2019-12-06 16:00:00 18.7 4 Sudeste 15 Sur 0 -- -- 69
2019-12-06 15:00:00 19.6 5 Sur 13 Sudoeste 0 -- -- 54
2019-12-06 14:00:00 19.1 7 Sudoeste 12 Sudoeste 0 -- -- 55
2019-12-06 13:00:00 18.4 7 Sudoeste 15 Sur 0 -- -- 55
2019-12-06 12:00:00 17.8 8 Sudoeste 14 Sudoeste 0 -- -- 57
2019-12-06 11:00:00 17.2 5 Sudoeste 11 Sudoeste 0 -- -- 61
2019-12-06 10:00:00 15.6 3 Oeste 12 Norte 0 -- -- 67
2019-12-06 09:00:00 13.1 8 Norte 13 Norte 0 -- -- 72
2019-12-06 08:00:00 12.4 8 Norte 15 Norte 0 -- -- 74
2019-12-06 07:00:00 12.5 10 Norte 16 Norte 0 -- -- 75
2019-12-06 06:00:00 12.5 4 Noroeste 14 Norte 0 -- -- 78
2019-12-06 05:00:00 12.2 9 Norte 13 Norte 0 -- -- 80
2019-12-06 04:00:00 12.6 4 Norte 11 Norte 0 -- -- 80
2019-12-06 03:00:00 12.6 3 Noroeste 12 Norte 0 -- -- 82
2019-12-06 02:00:00 12.4 4 Norte 9 Norte 0 -- -- 83
2019-12-06 01:00:00 12.7 2 Norte 13 Norte 0 -- -- 82
2019-12-06 00:00:00 13 6 Norte 10 Norte 0 -- -- 83
2019-12-05 23:00:00 13.3 0 Calma 8 Oeste 0 -- -- 81
2019-12-05 22:00:00 12.9 0 Calma 8 Noroeste 0 -- -- 81
2019-12-05 21:00:00 12.6 5 Norte 11 Norte 0 -- -- 86
2019-12-05 20:00:00 13.4 4 Norte 7 Norte 0 -- -- 83
2019-12-05 19:00:00 14 4 Norte 13 Sudeste 0 -- -- 82
2019-12-05 18:00:00 14.9 6 Sudeste 20 Sudeste 0 -- -- 78
2019-12-05 17:00:00 15.3 9 Sudeste 24 Sudeste 0 -- -- 74
2019-12-05 16:00:00 16.1 13 Sudeste 25 Sudeste 0 -- -- 73
2019-12-05 15:00:00 17.5 9 Sudeste 22 Sudeste 0 -- -- 68
2019-12-05 14:00:00 15.6 9 Sudeste 25 Sudeste 0 -- -- 73
2019-12-05 13:00:00 15.6 9 Sudeste 27 Este 0 -- -- 70
2019-12-05 12:00:00 15.6 8 Sudeste 30 Sudeste 0 -- -- 68
2019-12-05 11:00:00 15.2 12 Este 33 Este 0 -- -- 59
2019-12-05 10:00:00 13.4 0 Calma 6 Norte 0 -- -- 66
2019-12-05 09:00:00 12.1 3 Nordeste 12 Norte 0 -- -- 68
2019-12-05 08:00:00 12.1 8 Norte 14 Norte 0 -- -- 66
2019-12-05 07:00:00 11.7 5 Nordeste 13 Nordeste 0 -- -- 71
2019-12-05 06:00:00 11.3 9 Norte 12 Norte 0 -- -- 68
2019-12-05 05:00:00 12.3 6 Norte 11 Norte 0 -- -- 65
2019-12-05 04:00:00 12.6 6 Norte 12 Norte 0 -- -- 62
2019-12-05 03:00:00 12.3 7 Norte 10 Norte 0 -- -- 63
2019-12-05 02:00:00 11.6 8 Norte 13 Norte 0 -- -- 67
2019-12-05 01:00:00 11.3 5 Nordeste 9 Nordeste 0 -- -- 68
2019-12-05 00:00:00 11.9 7 Norte 15 Norte 0 -- -- 66
2019-12-04 23:00:00 12.2 6 Norte 11 Norte 0 -- -- 63
2019-12-04 22:00:00 12.4 4 Norte 12 Norte 0 -- -- 60
2019-12-04 21:00:00 12.3 3 Nordeste 12 Norte 0 -- -- 64
2019-12-04 20:00:00 13.1 5 Nordeste 16 Norte 0 -- -- 62
2019-12-04 19:00:00 13.1 2 Nordeste 10 Norte 0 -- -- 78
2019-12-04 18:00:00 14.8 4 Este 19 Sur 0 -- -- 75
2019-12-04 17:00:00 16.5 10 Sudoeste 32 Sudoeste 0 -- -- 72
2019-12-04 16:00:00 18.6 12 Sudoeste 30 Sudoeste 0 -- -- 59
2019-12-04 15:00:00 19.3 12 Oeste 29 Oeste 0 -- -- 48
2019-12-04 14:00:00 17.8 16 Sudoeste 35 Sudoeste 0 -- -- 69
2019-12-04 13:00:00 19.4 8 Sudoeste 30 Oeste 0 -- -- 54
2019-12-04 12:00:00 17.6 11 Sudoeste 22 Sudoeste 0 -- -- 67
2019-12-04 11:00:00 17.2 8 Sudoeste 15 Sudoeste 0 -- -- 63
2019-12-04 10:00:00 15.3 0 Calma 9 Nordeste 0 -- -- 63
2019-12-04 09:00:00 13 4 Este 24 Noroeste 0 -- -- 69
2019-12-04 08:00:00 13.9 6 Norte 33 Noroeste 0 -- -- 62
2019-12-04 07:00:00 13.8 11 Noroeste 30 Noroeste 0 -- -- 62
2019-12-04 06:00:00 11.6 4 Este 10 Noroeste 0 -- -- 74
2019-12-04 05:00:00 11.1 4 Noroeste 11 Norte 0 -- -- 77
2019-12-04 04:00:00 11 6 Norte 10 Norte 0 -- -- 82
2019-12-04 03:00:00 12 9 Noroeste 18 Norte 0 -- -- 77
2019-12-04 02:00:00 11.7 8 Norte 11 Norte 0 -- -- 86
2019-12-04 01:00:00 11.6 8 Norte 12 Nordeste 0 -- -- 83
2019-12-04 00:00:00 11.7 7 Norte 12 Norte 0 -- -- 85
2019-12-03 23:00:00 11.7 8 Norte 11 Norte 0 -- -- 84
2019-12-03 22:00:00 12 5 Norte 10 Norte 0 -- -- 90
2019-12-03 21:00:00 12.7 6 Nordeste 8 Nordeste 0 -- -- 89
2019-12-03 20:00:00 13.5 2 Norte 4 Norte 0 -- -- 87
2019-12-03 19:00:00 14 0 Calma 9 Sudoeste 0 -- -- 87
2019-12-03 18:00:00 15 0 Calma 8 Este 0 -- -- 80
2019-12-03 17:00:00 16.2 3 Nordeste 9 Sudoeste 0 -- -- 73
2019-12-03 16:00:00 17.1 6 Sur 10 Oeste 0 -- -- 67
2019-12-03 15:00:00 16 5 Sudoeste 10 Sur 0 -- -- 73
2019-12-03 14:00:00 15.7 3 Sur 13 Este 0 -- -- 77
2019-12-03 13:00:00 15.3 4 Este 13 Oeste 0 -- -- 78
2019-12-03 12:00:00 14.1 4 Noroeste 16 Noroeste 0 -- -- 76
2019-12-03 11:00:00 12.5 5 Noroeste 20 Nordeste 1 -- -- 89
2019-12-03 10:00:00 14.3 10 Nordeste 25 Nordeste 0.2 -- -- 70
2019-12-03 09:00:00 13.8 5 Nordeste 15 Norte 0 -- -- 73
2019-12-03 08:00:00 14.2 10 Norte 21 Norte 0 -- -- 68
2019-12-03 07:00:00 12.2 10 Norte 16 Norte 0 -- -- 81
2019-12-03 06:00:00 11.8 3 Nordeste 12 Nordeste 0 -- -- 92
2019-12-03 05:00:00 11.6 2 Norte 12 Norte 0 -- -- 93
2019-12-03 04:00:00 12.2 4 Noroeste 11 Noroeste 0 -- -- 95
2019-12-03 03:00:00 12.4 3 Noroeste 8 Nordeste 0.4 -- -- 93
2019-12-03 02:00:00 12.8 6 Norte 10 Norte 0.2 -- -- 84
2019-12-03 01:00:00 13.7 3 Este 23 Nordeste 0 -- -- 76
2019-12-03 00:00:00 13.9 8 Este 25 Sur 0 -- -- 79
2019-12-02 23:00:00 13.2 4 Norte 9 Norte 0.2 -- -- 86
2019-12-02 22:00:00 13.4 4 Noroeste 10 Norte 0 -- -- 84
2019-12-02 21:00:00 13 8 Norte 12 Nordeste 0 -- -- 86
2019-12-02 20:00:00 13 4 Norte 15 Este 0 -- -- 87
2019-12-02 19:00:00 13.9 5 Este 26 Este 0 -- -- 84
2019-12-02 18:00:00 14.2 10 Este 30 Sudeste 0 -- -- 81
2019-12-02 17:00:00 15.5 13 Sudeste 37 Este 0 -- -- 75
2019-12-02 16:00:00 16.4 11 Sudeste 25 Sudeste 0 -- -- 74
2019-12-02 15:00:00 15.6 7 Este 24 Nordeste 0 -- -- 74
2019-12-02 14:00:00 15.4 12 Sudeste 28 Sudeste 0 -- -- 80
2019-12-02 13:00:00 15.2 5 Sudeste 23 Este 0 -- -- 75
2019-12-02 12:00:00 14.1 7 Este 18 Sudeste 0 -- -- 77
2019-12-02 11:00:00 14.7 4 Sudeste 13 Este 0 -- -- 78
2019-12-02 10:00:00 14.1 4 Nordeste 17 Nordeste 0 -- -- 73
2019-12-02 09:00:00 12.3 4 Norte 12 Nordeste 0 -- -- 79
2019-12-02 08:00:00 11.3 3 Este 20 Norte 0 -- -- 87
2019-12-02 07:00:00 10.9 9 Norte 19 Noroeste 4.8 -- -- 91
2019-12-02 06:00:00 10.8 8 Norte 17 Norte 2.6 -- -- 94
2019-12-02 05:00:00 11 12 Norte 18 Norte 12 -- -- 95
2019-12-02 04:00:00 12.1 8 Norte 12 Norte 0.2 -- -- 96
2019-12-02 03:00:00 12.6 4 Nordeste 7 Nordeste 0 -- -- 96
2019-12-02 02:00:00 12.1 0 Calma 6 Norte 0 -- -- 96
2019-12-02 01:00:00 12.2 4 Nordeste 8 Norte 0 -- -- 96
2019-12-02 00:00:00 12.2 3 Nordeste 8 Norte 0 -- -- 95
2019-12-01 23:00:00 13.1 3 Norte 6 Noroeste 0.8 -- -- 95
2019-12-01 22:00:00 13.3 0 Calma 8 Norte 0 -- -- 95
2019-12-01 21:00:00 13.2 0 Calma 17 Oeste 0.8 -- -- 91
2019-12-01 20:00:00 14.1 9 Noroeste 17 Oeste 0 -- -- 83
2019-12-01 19:00:00 14.8 9 Oeste 21 Sudoeste 0 -- -- 79
2019-12-01 18:00:00 14.8 9 Noroeste 18 Oeste 0 -- -- 77
2019-12-01 17:00:00 16.8 7 Oeste 24 Sudoeste 0 -- -- 67
2019-12-01 16:00:00 17.3 8 Oeste 25 Oeste 0 -- -- 65
2019-12-01 15:00:00 17.6 12 Sudoeste 31 Sudoeste 0 -- -- 71
2019-12-01 14:00:00 16.5 14 Sudoeste 28 Sudoeste 0 -- -- 80
2019-12-01 13:00:00 17.1 12 Sudoeste 35 Sur 0 -- -- 78
2019-12-01 12:00:00 17.5 12 Sudoeste 28 Sudoeste 0 -- -- 64
2019-12-01 11:00:00 17.8 7 Sudoeste 18 Oeste 0 -- -- 60
2019-12-01 10:00:00 16.4 6 Sudoeste 13 Sudoeste 0 -- -- 59
2019-12-01 09:00:00 14.7 2 Nordeste 8 Oeste 0 -- -- 73
2019-12-01 08:00:00 14.7 3 Oeste 10 Norte 0 -- -- 73
2019-12-01 07:00:00 14.7 6 Oeste 15 Noroeste 0 -- -- 75
2019-12-01 06:00:00 14.8 5 Noroeste 16 Noroeste 0 -- -- 75
2019-12-01 05:00:00 13.3 4 Oeste 11 Norte 0 -- -- 73
2019-12-01 04:00:00 13 4 Norte 15 Norte 0 -- -- 73
2019-12-01 03:00:00 13.1 7 Norte 12 Nordeste 0 -- -- 71
2019-12-01 02:00:00 12.9 2 Nordeste 12 Nordeste 0 -- -- 76
2019-12-01 01:00:00 12.9 5 Nordeste 11 Nordeste 0 -- -- 76
2019-12-01 00:00:00 13 2 Noroeste 8 Norte 0 -- -- 78
2019-11-30 23:00:00 13 3 Noroeste 6 Nordeste 0 -- -- 80
2019-11-30 22:00:00 13.4 4 Nordeste 9 Nordeste 0 -- -- 80
2019-11-30 21:00:00 13.7 0 Calma 6 Nordeste 0 -- -- 80
2019-11-30 20:00:00 13.6 3 Noroeste 9 Noroeste 0 -- -- 82
2019-11-30 19:00:00 13.9 4 Oeste 9 Oeste 0 -- -- 82
2019-11-30 18:00:00 16.1 0 Calma 9 Sudoeste 0 -- -- 73
2019-11-30 17:00:00 17.8 5 Sudoeste 8 Sudoeste 0 -- -- 70
2019-11-30 16:00:00 18.3 5 Sudoeste 12 Sudoeste 0 -- -- 64
2019-11-30 15:00:00 19.6 5 Sur 9 Sur 0 -- -- 62
2019-11-30 14:00:00 19.7 4 Sur 10 Sur 0 -- -- 61
2019-11-30 13:00:00 18.6 4 Sur 10 Sur 0 -- -- 64
2019-11-30 12:00:00 18.8 4 Sur 8 Sur 0 -- -- 60
2019-11-30 11:00:00 18.3 3 Sudeste 6 Sudeste 0 -- -- 59
2019-11-30 10:00:00 16.5 2 Sur 3 Sur 0 -- -- 63
2019-11-30 09:00:00 13.6 2 Nordeste 8 Norte 0 -- -- 69
2019-11-30 08:00:00 13.3 0 Calma 9 Oeste 0 -- -- 67
2019-11-30 07:00:00 13.1 0 Calma 3 Norte 0 -- -- 69
2019-11-30 06:00:00 13.6 2 Nordeste 6 Noroeste 0 -- -- 66
2019-11-30 05:00:00 13.5 2 Norte 7 Oeste 0 -- -- 66
2019-11-30 04:00:00 14.2 0 Calma 6 Norte 0 -- -- 67
2019-11-30 03:00:00 13.5 0 Calma 7 Norte 0 -- -- 72
2019-11-30 02:00:00 13.6 0 Calma 8 Norte 0 -- -- 75
2019-11-30 01:00:00 14.1 4 Norte 10 Norte 0 -- -- 74
2019-11-30 00:00:00 13.9 8 Norte 11 Norte 0 -- -- 74
2019-11-29 23:00:00 14.1 0 Calma 6 Norte 0 -- -- 76
2019-11-29 22:00:00 14 2 Nordeste 5 Nordeste 0 -- -- 78
2019-11-29 21:00:00 13.8 3 Norte 8 Norte 0 -- -- 79
2019-11-29 20:00:00 14.1 7 Norte 9 Norte 0 -- -- 78
2019-11-29 19:00:00 14.2 2 Nordeste 6 Norte 0 -- -- 76
2019-11-29 18:00:00 16.5 0 Calma 6 Sudeste 0 -- -- 66
2019-11-29 17:00:00 18.1 2 Sudeste 10 Sudeste 0 -- -- 61
2019-11-29 16:00:00 18.8 4 Sur 10 Sudeste 0 -- -- 60
2019-11-29 15:00:00 18.8 4 Sudeste 12 Sudeste 0 -- -- 64
2019-11-29 14:00:00 18.3 5 Sur 11 Sudeste 0 -- -- 70
2019-11-29 13:00:00 17.9 5 Sur 10 Sur 0 -- -- 73
2019-11-29 12:00:00 17.5 5 Sudeste 9 Sur 0 -- -- 73
2019-11-29 11:00:00 17.2 3 Sudeste 10 Sudeste 0 -- -- 63
2019-11-29 10:00:00 15.7 0 Calma 5 Sur 0 -- -- 66
2019-11-29 09:00:00 13 2 Noroeste 8 Norte 0 -- -- 73
2019-11-29 08:00:00 12.1 2 Norte 7 Noroeste 0 -- -- 73
2019-11-29 07:00:00 12.3 0 Calma 7 Noroeste 0 -- -- 71
2019-11-29 06:00:00 13.5 8 Norte 13 Norte 0 -- -- 62
2019-11-29 05:00:00 13.2 2 Nordeste 9 Norte 0 -- -- 67
2019-11-29 04:00:00 13.9 6 Nordeste 13 Norte 0 -- -- 59
2019-11-29 03:00:00 13.9 6 Nordeste 14 Norte 0 -- -- 58
2019-11-29 02:00:00 13.7 3 Nordeste 10 Norte 0 -- -- 66
2019-11-29 01:00:00 13.8 0 Calma 10 Norte 0 -- -- 65
2019-11-29 00:00:00 14 3 Nordeste 13 Norte 0 -- -- 60
2019-11-28 23:00:00 14.5 4 Norte 15 Norte 0 -- -- 60
2019-11-28 22:00:00 15.3 10 Norte 15 Norte 0 -- -- 62
2019-11-28 21:00:00 13.7 3 Noroeste 8 Noroeste 0 -- -- 74
2019-11-28 20:00:00 14.3 0 Calma 13 Norte 0 -- -- 74
2019-11-28 19:00:00 14.8 5 Norte 9 Nordeste 0 -- -- 75
2019-11-28 18:00:00 16.9 0 Calma 6 Sur 0 -- -- 67
2019-11-28 17:00:00 17.8 5 Sudoeste 9 Sur 0 -- -- 66
2019-11-28 16:00:00 19 4 Sur 13 Sur 0 -- -- 64
2019-11-28 15:00:00 19.9 7 Sur 15 Sur 0 -- -- 48
2019-11-28 14:00:00 19.4 7 Sudoeste 13 Sur 0 -- -- 53
2019-11-28 13:00:00 19.6 6 Sur 12 Sudeste 0 -- -- 52
2019-11-28 12:00:00 19.3 5 Sur 11 Sur 0 -- -- 53
2019-11-28 11:00:00 18.6 3 Sur 9 Sudeste 0 -- -- 56
2019-11-28 10:00:00 17 2 Sur 4 Sur 0 -- -- 59
2019-11-28 09:00:00 14.2 5 Norte 14 Norte 0 -- -- 65
2019-11-28 08:00:00 13.5 5 Nordeste 13 Norte 0 -- -- 66
2019-11-28 07:00:00 13.7 6 Norte 11 Norte 0 -- -- 62
2019-11-28 06:00:00 14.2 9 Norte 17 Norte 0 -- -- 61
2019-11-28 05:00:00 14.3 8 Norte 13 Norte 0 -- -- 63
2019-11-28 04:00:00 13.8 6 Norte 8 Norte 0 -- -- 67
2019-11-28 03:00:00 14.6 3 Sudeste 6 Este 0 -- -- 64
2019-11-28 02:00:00 14.5 2 Norte 11 Norte 0 -- -- 64
2019-11-28 01:00:00 15.1 8 Norte 13 Norte 0 -- -- 61
2019-11-28 00:00:00 16.6 7 Norte 18 Oeste 0 -- -- 56
2019-11-27 23:00:00 17.3 8 Noroeste 17 Oeste 0 -- -- 55
2019-11-27 22:00:00 17.3 8 Noroeste 22 Noroeste 0 -- -- 57
2019-11-27 21:00:00 17.8 7 Noroeste 19 Oeste 0 -- -- 55
2019-11-27 20:00:00 18.1 7 Noroeste 20 Noroeste 0 -- -- 51
2019-11-27 19:00:00 18.4 10 Noroeste 22 Norte 0 -- -- 51
2019-11-27 18:00:00 19.4 9 Noroeste 30 Oeste 0 -- -- 50
2019-11-27 17:00:00 21.6 16 Noroeste 40 Noroeste 0 -- -- 44
2019-11-27 16:00:00 22.7 13 Oeste 36 Oeste 0 -- -- 43
2019-11-27 15:00:00 22.5 17 Oeste 37 Oeste 0 -- -- 42
2019-11-27 14:00:00 20.5 13 Sudoeste 31 Oeste 0 -- -- 62
2019-11-27 06:00:00 -- -- -- -- -- -- -- -- --
2019-11-27 05:00:00 -- -- -- -- -- -- -- -- --
2019-11-27 04:00:00 15.4 2 Nordeste 15 Sudoeste 0 -- -- 77
2019-11-27 03:00:00 16.3 6 Oeste 15 Oeste 0 -- -- 73
2019-11-27 02:00:00 16.1 6 Oeste 12 Noroeste 0 -- -- 67
2019-11-27 01:00:00 15.9 7 Noroeste 17 Noroeste 0 -- -- 70
2019-11-27 00:00:00 14.7 4 Oeste 12 Oeste 0 -- -- 76
2019-11-26 23:00:00 14.5 3 Noroeste 6 Noroeste 0 -- -- 81
2019-11-26 22:00:00 14.6 0 Calma 6 Noroeste 0 -- -- 77
2019-11-26 21:00:00 15.1 3 Noroeste 5 Noroeste 0 -- -- 81
2019-11-26 20:00:00 15.7 4 Oeste 8 Sudoeste 0 -- -- 83
2019-11-26 19:00:00 16.5 0 Calma 9 Norte 0 -- -- 82
2019-11-26 18:00:00 18.1 3 Nordeste 6 Sudeste 0 -- -- 76
2019-11-26 17:00:00 20 3 Sur 10 Este 0 -- -- 70
2019-11-26 16:00:00 20.3 7 Este 10 Este 0 -- -- 65
2019-11-26 15:00:00 21.7 5 Sur 11 Sudoeste 0 -- -- 55
2019-11-26 14:00:00 21.8 4 Sudoeste 11 Sudoeste 0 -- -- 51
2019-11-26 13:00:00 21.2 4 Sudoeste 9 Sur 0 -- -- 57
2019-11-26 12:00:00 20.6 4 Sur 10 Sudoeste 0 -- -- 56
2019-11-26 11:00:00 18.4 3 Oeste 10 Sudoeste 0 -- -- 68
2019-11-26 10:00:00 18.5 3 Sudeste 9 Norte 0 -- -- 66
2019-11-26 09:00:00 15.7 6 Norte 10 Norte 0 -- -- 72
2019-11-26 08:00:00 14.6 3 Nordeste 13 Norte 0 -- -- 76
2019-11-26 07:00:00 15.2 9 Norte 16 Norte 0 -- -- 74
2019-11-26 06:00:00 15.4 10 Norte 15 Norte 0 -- -- 71
2019-11-26 05:00:00 15.5 8 Norte 13 Noroeste 0 -- -- 72
2019-11-26 04:00:00 17 5 Nordeste 16 Noroeste 0 -- -- 68
2019-11-26 03:00:00 15.4 9 Norte 12 Norte 0 -- -- 75
2019-11-26 02:00:00 16 9 Norte 12 Norte 0 -- -- 73
2019-11-26 01:00:00 16.9 4 Sudeste 12 Norte 0 -- -- 72
2019-11-26 00:00:00 17 4 Nordeste 21 Oeste 0 -- -- 74
2019-11-25 23:00:00 17.7 9 Noroeste 15 Noroeste 0 -- -- 70
2019-11-25 22:00:00 16.9 6 Este 12 Norte 0 -- -- 78
2019-11-25 21:00:00 16.4 2 Norte 15 Oeste 0 -- -- 81
2019-11-25 20:00:00 17.7 3 Nordeste 22 Oeste 0 -- -- 75
2019-11-25 19:00:00 17.2 4 Este 26 Oeste 0 -- -- 77
2019-11-25 18:00:00 19 13 Oeste 23 Oeste 0 -- -- 71
2019-11-25 17:00:00 18.9 0 Calma 11 Sur 0 -- -- 68
2019-11-25 16:00:00 20 4 Sudoeste 14 Sudoeste 0 -- -- 66
2019-11-25 15:00:00 20 6 Sur 19 Sur 0 -- -- 69
2019-11-25 14:00:00 19.4 7 Sudoeste 17 Oeste 0 -- -- 69
2019-11-25 13:00:00 20.3 6 Sur 12 Sur 0 -- -- 64
2019-11-25 12:00:00 19.8 3 Sur 10 Sudoeste 0 -- -- 64
2019-11-25 11:00:00 19 2 Sudoeste 11 Sur 0 -- -- 59
2019-11-25 10:00:00 17.4 3 Sudoeste 11 Norte 0 -- -- 61
2019-11-25 09:00:00 15 5 Nordeste 10 Este 0 -- -- 64
2019-11-25 08:00:00 14.2 2 Nordeste 14 Nordeste 0 -- -- 63
2019-11-25 07:00:00 13.8 7 Nordeste 14 Nordeste 0 -- -- 61
2019-11-25 06:00:00 13.8 5 Este 12 Nordeste 0 -- -- 61
2019-11-25 05:00:00 12.8 5 Nordeste 14 Norte 0 -- -- 63
2019-11-25 04:00:00 12.6 7 Nordeste 14 Nordeste 0 -- -- 63
2019-11-25 03:00:00 12.7 9 Norte 16 Norte 0 -- -- 62
2019-11-25 02:00:00 12.4 7 Norte 13 Norte 0 -- -- 63
2019-11-25 01:00:00 12.8 3 Norte 13 Norte 0 -- -- 61
2019-11-25 00:00:00 13.2 4 Este 13 Norte 0 -- -- 60
2019-11-24 23:00:00 13.4 2 Norte 12 Norte 0 -- -- 58
2019-11-24 22:00:00 13.6 8 Norte 14 Norte 0 -- -- 57
2019-11-24 21:00:00 14.5 8 Norte 16 Norte 0 -- -- 52
2019-11-24 20:00:00 14.4 9 Norte 30 Noroeste 0 -- -- 52
2019-11-24 19:00:00 16.1 19 Norte 39 Noroeste 0 -- -- 47
2019-11-24 18:00:00 16.5 17 Noroeste 39 Oeste 0 -- -- 47
2019-11-24 17:00:00 18.2 15 Noroeste 27 Oeste 0 -- -- 39
2019-11-24 16:00:00 19.2 11 Oeste 26 Oeste 0 -- -- 35
2019-11-24 15:00:00 18.8 14 Noroeste 37 Oeste 0 -- -- 34
2019-11-24 14:00:00 18.1 19 Noroeste 46 Noroeste 0 -- -- 35
2019-11-24 13:00:00 17.3 13 Norte 29 Nordeste 0 -- -- 40
2019-11-24 12:00:00 18.2 11 Oeste 28 Oeste 0 -- -- 38
2019-11-24 11:00:00 16.8 11 Noroeste 34 Noroeste 0 -- -- 39
2019-11-24 10:00:00 15 11 Noroeste 41 Noroeste 0 -- -- 48
2019-11-24 09:00:00 14.2 17 Noroeste 37 Oeste 0 -- -- 49
2019-11-24 08:00:00 14 17 Noroeste 34 Oeste 0 -- -- 48
2019-11-24 07:00:00 14 12 Norte 36 Oeste 0 -- -- 48
2019-11-24 06:00:00 11.9 3 Sudeste 13 Norte 0 -- -- 54
2019-11-24 05:00:00 11.5 4 Norte 17 Oeste 0 -- -- 57
2019-11-24 04:00:00 11.7 6 Norte 14 Oeste 0 -- -- 57
2019-11-24 03:00:00 12.2 5 Norte 18 Sudoeste 0 -- -- 56
2019-11-24 02:00:00 13.5 10 Noroeste 21 Noroeste 0 -- -- 52
2019-11-24 01:00:00 14 14 Oeste 31 Oeste 0 -- -- 51
2019-11-24 00:00:00 13.2 4 Oeste 18 Oeste 0 -- -- 53
2019-11-23 23:00:00 14.2 4 Sudoeste 32 Noroeste 0 -- -- 50
2019-11-23 22:00:00 14.6 12 Oeste 33 Noroeste 0 -- -- 48
2019-11-23 21:00:00 14.8 12 Oeste 28 Oeste 0 -- -- 48
2019-11-23 20:00:00 14.8 12 Sudoeste 32 Noroeste 0 -- -- 52
2019-11-23 19:00:00 14.9 11 Sudoeste 30 Noroeste 0 -- -- 52
2019-11-23 18:00:00 16.1 5 Oeste 42 Noroeste 0 -- -- 46
2019-11-23 17:00:00 17.7 12 Oeste 36 Sudoeste 0 -- -- 43
2019-11-23 16:00:00 18 15 Oeste 41 Oeste 0 -- -- 45
2019-11-23 15:00:00 18.7 13 Oeste 37 Sudoeste 0 -- -- 43
2019-11-23 14:00:00 18.6 13 Oeste 36 Noroeste 0 -- -- 43
2019-11-23 13:00:00 17.3 18 Noroeste 53 Noroeste 0 -- -- 41
2019-11-23 12:00:00 17.1 19 Oeste 41 Sudoeste 0 -- -- 44
2019-11-23 11:00:00 16.4 15 Sudoeste 34 Noroeste 0 -- -- 53
2019-11-23 10:00:00 15.7 13 Oeste 36 Noroeste 0 -- -- 56
2019-11-23 09:00:00 14.7 15 Oeste 34 Sudoeste 0 -- -- 57
2019-11-23 08:00:00 14.8 13 Oeste 40 Sudoeste 0 -- -- 55
2019-11-23 07:00:00 14.8 18 Oeste 49 Oeste 0 -- -- 62
2019-11-23 06:00:00 15 14 Oeste 42 Oeste 0 -- -- 56
2019-11-23 05:00:00 15.4 19 Oeste 48 Oeste 0 -- -- 58
2019-11-23 04:00:00 15.5 23 Oeste 66 Noroeste 0 -- -- 57
2019-11-23 03:00:00 16 19 Noroeste 71 Oeste 0 -- -- 63
2019-11-23 02:00:00 16.6 13 Noroeste 51 Noroeste 0 -- -- 57
2019-11-23 01:00:00 16.3 23 Oeste 53 Oeste 0 -- -- 57
2019-11-23 00:00:00 16.7 15 Oeste 54 Noroeste 0 -- -- 51
2019-11-22 23:00:00 16.9 23 Noroeste 55 Norte 0 -- -- 51
2019-11-22 22:00:00 15.6 17 Noroeste 45 Oeste 2.6 -- -- 91
2019-11-22 21:00:00 15.9 8 Oeste 37 Oeste 1 -- -- 98
2019-11-22 20:00:00 15.9 12 Oeste 50 Oeste 0.4 -- -- 99
2019-11-22 19:00:00 15.7 13 Sudoeste 39 Sur 0.8 -- -- 99
2019-11-22 18:00:00 15.1 5 Oeste 17 Noroeste 0 -- -- 99
2019-11-22 17:00:00 13.8 3 Oeste 8 Noroeste 7 -- -- 99
2019-11-22 16:00:00 13.7 0 Calma 6 Norte 8.8 -- -- 99
2019-11-22 15:00:00 13.6 0 Calma 7 Este 2.8 -- -- 99
2019-11-22 14:00:00 13.8 3 Este 5 Este 3.2 -- -- 99
2019-11-22 13:00:00 13.8 4 Nordeste 6 Nordeste 5.4 -- -- 99
2019-11-22 12:00:00 13.9 0 Calma 6 Este 3.8 -- -- 98
2019-11-22 11:00:00 13.8 2 Sudeste 10 Norte 3.4 -- -- 98
2019-11-22 10:00:00 14 3 Norte 16 Oeste 4.4 -- -- 97
2019-11-22 09:00:00 13.8 8 Noroeste 20 Oeste 11.6 -- -- 97
2019-11-22 08:00:00 13.8 9 Noroeste 37 Oeste 9 -- -- 96
2019-11-22 07:00:00 14.1 20 Noroeste 36 Noroeste 1.2 -- -- 94
2019-11-22 06:00:00 14 15 Noroeste 36 Noroeste 3.4 -- -- 96
2019-11-22 05:00:00 13.9 0 Calma 4 Oeste 4.4 -- -- 98
2019-11-22 04:00:00 13.9 0 Calma 9 Noroeste 2.8 -- -- 97
2019-11-22 03:00:00 13.9 4 Noroeste 7 Sudoeste 0.8 -- -- 97
2019-11-22 02:00:00 14.1 2 Oeste 17 Noroeste 0 -- -- 95
2019-11-22 01:00:00 13.9 8 Noroeste 14 Noroeste 0 -- -- 98
2019-11-22 00:00:00 13.9 4 Oeste 21 Oeste 0.8 -- -- 98
2019-11-21 23:00:00 13.6 0 Calma 10 Oeste 0.4 -- -- 98
2019-11-21 22:00:00 13.5 3 Sudeste 6 Oeste 0.8 -- -- 98
2019-11-21 21:00:00 13.4 2 Oeste 9 Noroeste 1.6 -- -- 97
2019-11-21 20:00:00 13.3 3 Noroeste 13 Norte 3.6 -- -- 97
2019-11-21 19:00:00 13.5 2 Oeste 5 Norte 1.8 -- -- 97
2019-11-21 18:00:00 13.5 0 Calma 10 Norte 2.6 -- -- 95
2019-11-21 17:00:00 13.9 3 Noroeste 14 Norte 0.4 -- -- 93
2019-11-21 16:00:00 13.8 8 Noroeste 15 Oeste 0.2 -- -- 95
2019-11-21 15:00:00 13.9 3 Oeste 18 Oeste 1.2 -- -- 95
2019-11-21 14:00:00 13.3 6 Noroeste 14 Noroeste 2.4 -- -- 97
2019-11-21 13:00:00 13 0 Calma 5 Sur 1.6 -- -- 97
2019-11-21 12:00:00 12.6 3 Noroeste 8 Noroeste 1.8 -- -- 95
2019-11-21 11:00:00 12.3 6 Norte 12 Norte 0 -- -- 95
2019-11-21 10:00:00 12.2 4 Noroeste 7 Noroeste 1 -- -- 92
2019-11-21 09:00:00 12.4 2 Noroeste 5 Noroeste 0 -- -- 84
2019-11-21 08:00:00 11.8 0 Calma 5 Norte 0 -- -- 85
2019-11-21 07:00:00 11.7 0 Calma 5 Oeste 0.2 -- -- 86
2019-11-21 06:00:00 12.3 3 Oeste 9 Noroeste 0 -- -- 81
2019-11-21 05:00:00 11.8 2 Nordeste 6 Norte 0 -- -- 82
2019-11-21 04:00:00 11.7 3 Nordeste 5 Norte 0 -- -- 83
2019-11-21 03:00:00 11.9 0 Calma 14 Noroeste 0 -- -- 82
2019-11-21 02:00:00 11.5 5 Oeste 17 Noroeste 0 -- -- 83
2019-11-21 01:00:00 12.2 7 Noroeste 20 Oeste 0 -- -- 81
2019-11-21 00:00:00 12.6 7 Noroeste 19 Oeste 0 -- -- 78
2019-11-20 23:00:00 13.2 8 Noroeste 21 Oeste 0 -- -- 78
2019-11-20 22:00:00 12.9 8 Noroeste 17 Noroeste 0 -- -- 79
2019-11-20 21:00:00 12.7 7 Norte 12 Oeste 0 -- -- 82
2019-11-20 20:00:00 12.1 6 Noroeste 10 Norte 0.2 -- -- 88
2019-11-20 19:00:00 12.7 5 Noroeste 12 Noroeste 0 -- -- 83
2019-11-20 18:00:00 13.2 4 Oeste 12 Noroeste 0 -- -- 78
2019-11-20 17:00:00 13.3 6 Noroeste 20 Noroeste 0 -- -- 77
2019-11-20 16:00:00 13.3 10 Noroeste 25 Noroeste 0 -- -- 80
2019-11-20 15:00:00 12.1 9 Noroeste 19 Oeste 0 -- -- 87
2019-11-20 14:00:00 11.9 4 Sudoeste 15 Sudoeste 0.8 -- -- 91
2019-11-20 13:00:00 13.1 6 Sudoeste 16 Sudoeste 0 -- -- 83
2019-11-20 12:00:00 15 5 Sudoeste 11 Oeste 0 -- -- 66
2019-11-20 11:00:00 15.4 7 Sur 13 Sur 0 -- -- 58
2019-11-20 10:00:00 13.9 5 Sur 9 Sudoeste 0 -- -- 55
2019-11-20 09:00:00 11.2 0 Calma 5 Norte 0 -- -- 61
2019-11-20 08:00:00 10.7 0 Calma 10 Noroeste 0 -- -- 60
2019-11-20 07:00:00 10.7 6 Norte 11 Norte 0 -- -- 58
2019-11-20 06:00:00 11 9 Norte 13 Norte 0 -- -- 56
2019-11-20 05:00:00 11.2 8 Norte 10 Norte 0 -- -- 58
2019-11-20 04:00:00 11.6 5 Norte 9 Norte 0 -- -- 57
2019-11-20 03:00:00 11.6 4 Norte 6 Nordeste 0 -- -- 60
2019-11-20 02:00:00 11.5 2 Nordeste 4 Norte 0 -- -- 58
2019-11-20 01:00:00 11.8 0 Calma 8 Noroeste 0 -- -- 68
2019-11-20 00:00:00 12.5 3 Noroeste 10 Norte 0 -- -- 53
2019-11-19 23:00:00 13.3 7 Norte 10 Norte 0 -- -- 50
2019-11-19 22:00:00 13.2 0 Calma 10 Norte 0 -- -- 53
2019-11-19 21:00:00 12.9 5 Noroeste 11 Norte 0 -- -- 54
2019-11-19 20:00:00 12.3 6 Norte 13 Norte 0 -- -- 60
2019-11-19 19:00:00 11.6 4 Norte 9 Noroeste 0 -- -- 67
2019-11-19 18:00:00 13.2 4 Oeste 8 Sudoeste 0 -- -- 69
2019-11-19 17:00:00 15.1 4 Sur 10 Sur 0 -- -- 58
2019-11-19 16:00:00 16.4 4 Sudoeste 11 Sur 0 -- -- 47
2019-11-19 15:00:00 16.4 8 Sur 13 Sur 0 -- -- 51
2019-11-19 14:00:00 16.5 5 Sudoeste 14 Sur 0 -- -- 46
2019-11-19 13:00:00 16.4 8 Sur 14 Sur 0 -- -- 48
2019-11-19 12:00:00 16.3 6 Sur 13 Sudeste 0 -- -- 47
2019-11-19 11:00:00 15.2 4 Sur 10 Sudeste 0 -- -- 52
2019-11-19 10:00:00 13.8 2 Sudoeste 6 Norte 0 -- -- 51
2019-11-19 09:00:00 12 3 Norte 15 Norte 0 -- -- 47
2019-11-19 08:00:00 11.3 9 Norte 15 Norte 0 -- -- 47
2019-11-19 07:00:00 11.7 10 Norte 14 Norte 0 -- -- 46
2019-11-19 06:00:00 11.4 9 Norte 13 Norte 0 -- -- 47
2019-11-19 05:00:00 12.1 4 Norte 14 Norte 0 -- -- 45
2019-11-19 04:00:00 12 8 Norte 15 Norte 0 -- -- 44
2019-11-19 03:00:00 12.2 12 Norte 17 Norte 0 -- -- 42
2019-11-19 02:00:00 12 12 Norte 17 Norte 0 -- -- 42
2019-11-19 01:00:00 12.4 12 Norte 15 Norte 0 -- -- 48
2019-11-19 00:00:00 12.1 8 Norte 13 Norte 0 -- -- 48
2019-11-18 23:00:00 12.4 8 Norte 12 Nordeste 0 -- -- 50
2019-11-18 22:00:00 13.1 8 Norte 15 Norte 0 -- -- 44
2019-11-18 21:00:00 14.2 4 Nordeste 28 Oeste 0 -- -- 43
2019-11-18 20:00:00 15.6 7 Norte 32 Norte 0 -- -- 35
2019-11-18 19:00:00 15.4 15 Norte 32 Norte 0 -- -- 39
2019-11-18 18:00:00 16.6 13 Norte 26 Norte 0 -- -- 37
2019-11-18 17:00:00 18.4 13 Norte 34 Noroeste 0 -- -- 35
2019-11-18 16:00:00 18.5 22 Noroeste 35 Norte 0 -- -- 36
2019-11-18 15:00:00 19.1 16 Noroeste 37 Oeste 0 -- -- 36
2019-11-18 14:00:00 18.7 14 Norte 31 Oeste 0 -- -- 37
2019-11-18 13:00:00 18 9 Noroeste 36 Noroeste 0 -- -- 39
2019-11-18 12:00:00 17.1 12 Noroeste 39 Noroeste 0 -- -- 39
2019-11-18 11:00:00 15.9 14 Noroeste 29 Noroeste 0 -- -- 47
2019-11-18 10:00:00 14.6 14 Noroeste 41 Oeste 0 -- -- 50
2019-11-18 09:00:00 13.7 14 Noroeste 33 Noroeste 0 -- -- 52
2019-11-18 08:00:00 12.3 8 Noroeste 12 Norte 0 -- -- 76
2019-11-18 07:00:00 13 7 Oeste 20 Oeste 0 -- -- 85
2019-11-18 06:00:00 14.4 14 Noroeste 28 Oeste 0.4 -- -- 82
2019-11-18 05:00:00 14 4 Noroeste 13 Oeste 0 -- -- 81
2019-11-18 04:00:00 13.7 6 Noroeste 19 Oeste 0 -- -- 82
2019-11-18 03:00:00 13.8 4 Sudoeste 13 Oeste 0 -- -- 82
2019-11-18 02:00:00 14.4 8 Oeste 21 Oeste 0 -- -- 77
2019-11-18 01:00:00 13.8 6 Oeste 17 Oeste 0 -- -- 80
2019-11-18 00:00:00 14 7 Oeste 22 Oeste 0 -- -- 79
2019-11-17 23:00:00 13.6 11 Oeste 19 Noroeste 0 -- -- 84
2019-11-17 22:00:00 13.7 6 Oeste 17 Oeste 0 -- -- 84
2019-11-17 21:00:00 13.4 8 Oeste 15 Oeste 0 -- -- 84
2019-11-17 20:00:00 13.6 6 Oeste 22 Sudoeste 0 -- -- 85
2019-11-17 19:00:00 13.5 10 Oeste 35 Oeste 0 -- -- 86
2019-11-17 18:00:00 14 16 Oeste 32 Oeste 0 -- -- 81
2019-11-17 17:00:00 14.7 9 Sudoeste 26 Sudoeste 0 -- -- 76
2019-11-17 16:00:00 14.3 6 Sudoeste 29 Sudoeste 0 -- -- 69
2019-11-17 15:00:00 14.7 12 Sudoeste 42 Sudoeste 0 -- -- 56
2019-11-17 14:00:00 16.9 16 Sudoeste 41 Oeste 0 -- -- 54
2019-11-17 13:00:00 17.3 13 Sudoeste 30 Sudoeste 0 -- -- 52
2019-11-17 12:00:00 16.2 6 Sur 19 Sur 0 -- -- 50
2019-11-17 11:00:00 15.6 8 Sudoeste 16 Oeste 0 -- -- 41
2019-11-17 10:00:00 13.7 7 Oeste 14 Oeste 0 -- -- 42
2019-11-17 09:00:00 10.8 3 Nordeste 9 Nordeste 0 -- -- 45
2019-11-17 08:00:00 9.7 2 Sudeste 9 Norte 0 -- -- 45
2019-11-17 07:00:00 9.3 3 Norte 10 Norte 0 -- -- 46
2019-11-17 06:00:00 9.8 4 Nordeste 16 Oeste 0 -- -- 47
2019-11-17 05:00:00 11.5 6 Oeste 16 Noroeste 0 -- -- 39
2019-11-17 04:00:00 10 4 Norte 9 Nordeste 0 -- -- 42
2019-11-17 03:00:00 10 7 Norte 12 Norte 0 -- -- 43
2019-11-17 02:00:00 10.6 6 Norte 15 Norte 0 -- -- 43
2019-11-17 01:00:00 10.5 8 Norte 15 Norte 0 -- -- 42
2019-11-17 00:00:00 10.9 10 Norte 14 Norte 0 -- -- 43
2019-11-16 23:00:00 11.2 10 Norte 15 Norte 0 -- -- 43
2019-11-16 22:00:00 11.1 9 Norte 14 Norte 0 -- -- 41
2019-11-16 21:00:00 12.2 4 Nordeste 20 Noroeste 0 -- -- 35
2019-11-16 20:00:00 12.7 4 Noroeste 22 Norte 0 -- -- 33
2019-11-16 19:00:00 14 14 Noroeste 36 Noroeste 0 -- -- 33
2019-11-16 18:00:00 14.9 19 Noroeste 33 Noroeste 0 -- -- 33
2019-11-16 17:00:00 17.1 12 Oeste 25 Oeste 0 -- -- 30
2019-11-16 16:00:00 17.5 12 Noroeste 28 Noroeste 0 -- -- 30
2019-11-16 15:00:00 17.5 8 Sudoeste 26 Sudoeste 0 -- -- 27
2019-11-16 14:00:00 16.7 12 Sudoeste 23 Sudoeste 0 -- -- 40
2019-11-16 13:00:00 16.2 11 Sudoeste 22 Sur 0 -- -- 34
2019-11-16 12:00:00 15.2 6 Sudoeste 16 Sur 0 -- -- 38
2019-11-16 11:00:00 14.5 7 Sur 12 Sudeste 0 -- -- 45
2019-11-16 10:00:00 13.2 6 Sudeste 14 Este 0 -- -- 47
2019-11-16 09:00:00 11 3 Este 17 Este 0 -- -- 48
2019-11-16 08:00:00 10.2 5 Nordeste 14 Noroeste 0 -- -- 41
2019-11-16 07:00:00 9.2 8 Norte 16 Norte 0 -- -- 48
2019-11-16 06:00:00 9.1 9 Norte 16 Norte 0 -- -- 50
2019-11-16 05:00:00 9.5 9 Norte 14 Norte 0 -- -- 51
2019-11-16 04:00:00 9.6 3 Sudeste 11 Norte 0 -- -- 47
2019-11-16 03:00:00 10.7 5 Norte 34 Norte 0 -- -- 50
2019-11-16 02:00:00 11.4 16 Noroeste 33 Noroeste 0 -- -- 47
2019-11-16 01:00:00 11.4 17 Noroeste 31 Noroeste 0 -- -- 47
2019-11-16 00:00:00 11.1 7 Noroeste 32 Noroeste 0 -- -- 47
2019-11-15 23:00:00 10.8 11 Noroeste 31 Oeste 0 -- -- 46
2019-11-15 22:00:00 10.6 11 Noroeste 30 Oeste 0 -- -- 47
2019-11-15 21:00:00 10.7 15 Noroeste 32 Noroeste 0 -- -- 48
2019-11-15 20:00:00 10.5 10 Oeste 25 Noroeste 0 -- -- 48
2019-11-15 19:00:00 10.9 9 Noroeste 34 Oeste 0 -- -- 47
2019-11-15 18:00:00 11.6 14 Noroeste 28 Oeste 0 -- -- 40
2019-11-15 17:00:00 13.2 13 Noroeste 28 Noroeste 0 -- -- 37
2019-11-15 16:00:00 14.1 17 Noroeste 41 Noroeste 0 -- -- 33
2019-11-15 15:00:00 14.5 14 Noroeste 31 Oeste 0 -- -- 35
2019-11-15 14:00:00 15.3 7 Noroeste 35 Oeste 0 -- -- 32
2019-11-15 13:00:00 14.7 17 Sudoeste 31 Sudoeste 0 -- -- 37
2019-11-15 12:00:00 12.8 7 Sudoeste 23 Sudoeste 0 -- -- 42
2019-11-15 11:00:00 12.9 10 Oeste 37 Noroeste 0 -- -- 43
2019-11-15 10:00:00 12 18 Noroeste 36 Oeste 0 -- -- 38
2019-11-15 09:00:00 11.4 18 Noroeste 32 Noroeste 0 -- -- 41
2019-11-15 08:00:00 10.6 14 Noroeste 29 Noroeste 0 -- -- 46
2019-11-15 07:00:00 10.4 10 Noroeste 27 Oeste 0 -- -- 49
2019-11-15 06:00:00 9.1 5 Oeste 15 Oeste 0 -- -- 59
2019-11-15 05:00:00 9.7 4 Oeste 15 Sudoeste 0 -- -- 59
2019-11-15 04:00:00 11.1 8 Oeste 19 Sudoeste 0 -- -- 55
2019-11-15 03:00:00 12.2 9 Oeste 38 Noroeste 0 -- -- 50
2019-11-15 02:00:00 12.9 10 Noroeste 32 Norte 0 -- -- 39
2019-11-15 01:00:00 11.7 5 Oeste 25 Oeste 0 -- -- 51
2019-11-15 00:00:00 11.7 8 Oeste 19 Oeste 0 -- -- 50